sensor_id;sensor_type;location;lat;lon;timestamp;pressure;altitude;pressure_sealevel;temperature;humidity
16094;BME280;8151;47.824;12.092;2022-12-18T00:00:09;97364.66;;;-0.88;80.31
16094;BME280;8151;47.824;12.092;2022-12-18T00:02:40;97369.84;;;-0.88;80.05
16094;BME280;8151;47.824;12.092;2022-12-18T00:05:08;97368.78;;;-0.84;80.52
16094;BME280;8151;47.824;12.092;2022-12-18T00:07:37;97366.88;;;-0.81;80.25
16094;BME280;8151;47.824;12.092;2022-12-18T00:10:06;97366.94;;;-0.82;79.83
16094;BME280;8151;47.824;12.092;2022-12-18T00:12:35;97365.47;;;-0.88;80.06
16094;BME280;8151;47.824;12.092;2022-12-18T00:15:04;97366.97;;;-1.01;79.80
16094;BME280;8151;47.824;12.092;2022-12-18T00:17:32;97362.13;;;-1.09;80.26
16094;BME280;8151;47.824;12.092;2022-12-18T00:20:02;97357.94;;;-1.11;80.20
16094;BME280;8151;47.824;12.092;2022-12-18T00:22:31;97362.50;;;-1.16;80.04
16094;BME280;8151;47.824;12.092;2022-12-18T00:25:00;97374.09;;;-1.24;80.23
16094;BME280;8151;47.824;12.092;2022-12-18T00:27:28;97361.19;;;-1.25;80.18
16094;BME280;8151;47.824;12.092;2022-12-18T00:29:56;97359.75;;;-1.32;79.95
16094;BME280;8151;47.824;12.092;2022-12-18T00:32:25;97360.81;;;-1.36;79.91
16094;BME280;8151;47.824;12.092;2022-12-18T00:34:53;97365.53;;;-1.45;79.81
16094;BME280;8151;47.824;12.092;2022-12-18T00:37:23;97369.19;;;-1.49;79.84
16094;BME280;8151;47.824;12.092;2022-12-18T00:39:51;97365.03;;;-1.53;79.85
16094;BME280;8151;47.824;12.092;2022-12-18T00:42:20;97352.47;;;-1.62;79.94
16094;BME280;8151;47.824;12.092;2022-12-18T00:45:06;97357.16;;;-1.70;80.07
16094;BME280;8151;47.824;12.092;2022-12-18T00:47:39;97353.03;;;-1.74;79.95
16094;BME280;8151;47.824;12.092;2022-12-18T00:50:08;97363.66;;;-1.81;79.85
16094;BME280;8151;47.824;12.092;2022-12-18T00:52:41;97368.22;;;-1.86;79.87
16094;BME280;8151;47.824;12.092;2022-12-18T00:55:10;97370.16;;;-1.91;79.77
16094;BME280;8151;47.824;12.092;2022-12-18T00:57:40;97363.41;;;-1.95;79.89
16094;BME280;8151;47.824;12.092;2022-12-18T01:00:11;97362.66;;;-1.97;79.82
16094;BME280;8151;47.824;12.092;2022-12-18T01:02:41;97367.94;;;-2.00;79.81
16094;BME280;8151;47.824;12.092;2022-12-18T01:05:11;97367.13;;;-2.01;79.82
16094;BME280;8151;47.824;12.092;2022-12-18T01:07:41;97365.34;;;-2.00;79.73
16094;BME280;8151;47.824;12.092;2022-12-18T01:10:11;97370.59;;;-2.02;79.65
16094;BME280;8151;47.824;12.092;2022-12-18T01:12:40;97379.44;;;-2.06;79.44
16094;BME280;8151;47.824;12.092;2022-12-18T01:15:10;97379.50;;;-2.07;79.45
16094;BME280;8151;47.824;12.092;2022-12-18T01:17:40;97387.28;;;-2.07;79.48
16094;BME280;8151;47.824;12.092;2022-12-18T01:20:11;97394.97;;;-2.06;79.63
16094;BME280;8151;47.824;12.092;2022-12-18T01:22:41;97391.44;;;-2.03;79.57
16094;BME280;8151;47.824;12.092;2022-12-18T01:25:10;97396.53;;;-2.02;79.26
16094;BME280;8151;47.824;12.092;2022-12-18T01:27:38;97396.53;;;-2.02;79.48
16094;BME280;8151;47.824;12.092;2022-12-18T01:30:07;97401.88;;;-2.05;79.36
16094;BME280;8151;47.824;12.092;2022-12-18T01:32:36;97398.81;;;-2.14;79.36
16094;BME280;8151;47.824;12.092;2022-12-18T01:35:05;97399.19;;;-2.24;79.45
16094;BME280;8151;47.824;12.092;2022-12-18T01:37:34;97401.06;;;-2.27;79.59
16094;BME280;8151;47.824;12.092;2022-12-18T01:40:05;97402.38;;;-2.38;79.53
16094;BME280;8151;47.824;12.092;2022-12-18T01:42:33;97404.19;;;-2.40;79.69
16094;BME280;8151;47.824;12.092;2022-12-18T01:45:05;97418.75;;;-2.37;79.63
16094;BME280;8151;47.824;12.092;2022-12-18T01:47:38;97426.28;;;-2.31;79.64
16094;BME280;8151;47.824;12.092;2022-12-18T01:50:10;97426.09;;;-2.26;79.60
16094;BME280;8151;47.824;12.092;2022-12-18T01:52:41;97429.53;;;-2.26;79.54
16094;BME280;8151;47.824;12.092;2022-12-18T01:55:12;97420.78;;;-2.23;79.34
16094;BME280;8151;47.824;12.092;2022-12-18T01:57:42;97430.09;;;-2.19;79.33
16094;BME280;8151;47.824;12.092;2022-12-18T02:00:13;97427.34;;;-2.14;79.56
16094;BME280;8151;47.824;12.092;2022-12-18T02:02:43;97434.19;;;-2.13;79.45
16094;BME280;8151;47.824;12.092;2022-12-18T02:05:15;97437.66;;;-2.13;79.46
16094;BME280;8151;47.824;12.092;2022-12-18T02:07:51;97439.53;;;-2.16;79.49
16094;BME280;8151;47.824;12.092;2022-12-18T02:10:28;97440.47;;;-2.19;79.59
16094;BME280;8151;47.824;12.092;2022-12-18T02:13:09;97431.03;;;-2.20;79.68
16094;BME280;8151;47.824;12.092;2022-12-18T02:15:43;97434.41;;;-2.18;79.69
16094;BME280;8151;47.824;12.092;2022-12-18T02:18:18;97426.88;;;-2.24;79.78
16094;BME280;8151;47.824;12.092;2022-12-18T02:20:50;97424.41;;;-2.27;79.67
16094;BME280;8151;47.824;12.092;2022-12-18T02:23:36;97432.91;;;-2.24;79.73
16094;BME280;8151;47.824;12.092;2022-12-18T02:26:16;97428.63;;;-2.25;79.64
16094;BME280;8151;47.824;12.092;2022-12-18T02:28:52;97426.03;;;-2.25;79.74
16094;BME280;8151;47.824;12.092;2022-12-18T02:31:27;97424.34;;;-2.26;79.62
16094;BME280;8151;47.824;12.092;2022-12-18T02:33:59;97422.69;;;-2.27;79.85
16094;BME280;8151;47.824;12.092;2022-12-18T02:36:31;97426.03;;;-2.25;79.71
16094;BME280;8151;47.824;12.092;2022-12-18T02:39:01;97415.53;;;-2.22;79.55
16094;BME280;8151;47.824;12.092;2022-12-18T02:41:32;97425.19;;;-2.25;79.45
16094;BME280;8151;47.824;12.092;2022-12-18T02:44:09;97422.78;;;-2.30;79.43
16094;BME280;8151;47.824;12.092;2022-12-18T02:46:40;97423.81;;;-2.34;79.50
16094;BME280;8151;47.824;12.092;2022-12-18T02:49:20;97424.97;;;-2.41;79.45
16094;BME280;8151;47.824;12.092;2022-12-18T02:51:52;97426.00;;;-2.45;79.54
16094;BME280;8151;47.824;12.092;2022-12-18T02:54:36;97416.66;;;-2.49;79.36
16094;BME280;8151;47.824;12.092;2022-12-18T02:57:15;97427.16;;;-2.52;79.44
16094;BME280;8151;47.824;12.092;2022-12-18T02:59:52;97429.25;;;-2.62;79.63
16094;BME280;8151;47.824;12.092;2022-12-18T03:02:26;97423.97;;;-2.59;79.45
16094;BME280;8151;47.824;12.092;2022-12-18T03:05:01;97417.16;;;-2.62;79.32
16094;BME280;8151;47.824;12.092;2022-12-18T03:07:38;97424.28;;;-2.67;79.24
16094;BME280;8151;47.824;12.092;2022-12-18T03:10:12;97426.97;;;-2.70;79.34
16094;BME280;8151;47.824;12.092;2022-12-18T03:12:45;97423.34;;;-2.66;79.51
16094;BME280;8151;47.824;12.092;2022-12-18T03:15:23;97420.66;;;-2.63;79.22
16094;BME280;8151;47.824;12.092;2022-12-18T03:18:01;97418.84;;;-2.61;79.36
16094;BME280;8151;47.824;12.092;2022-12-18T03:20:33;97416.91;;;-2.55;78.98
16094;BME280;8151;47.824;12.092;2022-12-18T03:23:08;97429.63;;;-2.49;79.29
16094;BME280;8151;47.824;12.092;2022-12-18T03:25:39;97433.88;;;-2.48;79.17
16094;BME280;8151;47.824;12.092;2022-12-18T03:28:12;97427.16;;;-2.52;79.16
16094;BME280;8151;47.824;12.092;2022-12-18T03:30:44;97422.88;;;-2.53;79.05
16094;BME280;8151;47.824;12.092;2022-12-18T03:33:17;97427.19;;;-2.54;79.09
16094;BME280;8151;47.824;12.092;2022-12-18T03:35:47;97428.06;;;-2.53;79.35
16094;BME280;8151;47.824;12.092;2022-12-18T03:38:16;97439.22;;;-2.51;79.29
16094;BME280;8151;47.824;12.092;2022-12-18T03:40:51;97434.03;;;-2.51;79.28
16094;BME280;8151;47.824;12.092;2022-12-18T03:43:34;97440.59;;;-2.65;79.13
16094;BME280;8151;47.824;12.092;2022-12-18T03:46:07;97430.34;;;-2.90;79.83
16094;BME280;8151;47.824;12.092;2022-12-18T03:48:41;97420.56;;;-3.05;80.00
16094;BME280;8151;47.824;12.092;2022-12-18T03:51:15;97418.09;;;-3.08;80.08
16094;BME280;8151;47.824;12.092;2022-12-18T03:53:50;97417.25;;;-3.09;79.90
16094;BME280;8151;47.824;12.092;2022-12-18T03:56:22;97426.22;;;-3.18;79.90
16094;BME280;8151;47.824;12.092;2022-12-18T03:58:56;97420.91;;;-3.14;79.99
16094;BME280;8151;47.824;12.092;2022-12-18T04:01:29;97419.09;;;-3.12;79.87
16094;BME280;8151;47.824;12.092;2022-12-18T04:04:00;97433.75;;;-3.11;79.67
16094;BME280;8151;47.824;12.092;2022-12-18T04:06:29;97414.63;;;-3.31;79.74
16094;BME280;8151;47.824;12.092;2022-12-18T04:08:58;97416.53;;;-3.36;79.93
16094;BME280;8151;47.824;12.092;2022-12-18T04:11:27;97425.81;;;-3.30;79.61
16094;BME280;8151;47.824;12.092;2022-12-18T04:13:57;97428.19;;;-3.24;79.29
16094;BME280;8151;47.824;12.092;2022-12-18T04:16:28;97418.00;;;-3.29;79.60
16094;BME280;8151;47.824;12.092;2022-12-18T04:18:57;97430.94;;;-3.29;79.31
16094;BME280;8151;47.824;12.092;2022-12-18T04:21:26;97430.53;;;-3.42;79.13
16094;BME280;8151;47.824;12.092;2022-12-18T04:23:54;97429.94;;;-3.48;79.70
16094;BME280;8151;47.824;12.092;2022-12-18T04:26:23;97428.47;;;-3.56;79.47
16094;BME280;8151;47.824;12.092;2022-12-18T04:28:51;97421.25;;;-3.71;79.38
16094;BME280;8151;47.824;12.092;2022-12-18T04:31:21;97418.56;;;-3.68;79.93
16094;BME280;8151;47.824;12.092;2022-12-18T04:33:49;97426.03;;;-3.60;79.92
16094;BME280;8151;47.824;12.092;2022-12-18T04:36:18;97430.78;;;-3.48;79.52
16094;BME280;8151;47.824;12.092;2022-12-18T04:38:46;97431.47;;;-3.43;79.25
16094;BME280;8151;47.824;12.092;2022-12-18T04:41:15;97439.44;;;-3.49;78.95
16094;BME280;8151;47.824;12.092;2022-12-18T04:43:43;97436.94;;;-3.76;79.32
16094;BME280;8151;47.824;12.092;2022-12-18T04:46:11;97438.13;;;-3.86;79.66
16094;BME280;8151;47.824;12.092;2022-12-18T04:48:41;97423.75;;;-3.93;79.87
16094;BME280;8151;47.824;12.092;2022-12-18T04:51:09;97429.75;;;-3.92;79.54
16094;BME280;8151;47.824;12.092;2022-12-18T04:53:38;97436.53;;;-3.90;79.58
16094;BME280;8151;47.824;12.092;2022-12-18T04:56:09;97446.00;;;-3.89;79.63
16094;BME280;8151;47.824;12.092;2022-12-18T04:58:39;97443.22;;;-3.83;79.31
16094;BME280;8151;47.824;12.092;2022-12-18T05:01:08;97442.84;;;-3.97;79.66
16094;BME280;8151;47.824;12.092;2022-12-18T05:03:37;97450.75;;;-4.02;79.02
16094;BME280;8151;47.824;12.092;2022-12-18T05:06:08;97448.19;;;-4.03;79.27
16094;BME280;8151;47.824;12.092;2022-12-18T05:08:36;97454.13;;;-4.00;79.16
16094;BME280;8151;47.824;12.092;2022-12-18T05:11:07;97449.59;;;-3.93;79.06
16094;BME280;8151;47.824;12.092;2022-12-18T05:13:37;97461.31;;;-3.83;79.29
16094;BME280;8151;47.824;12.092;2022-12-18T05:16:07;97463.53;;;-3.72;79.09
16094;BME280;8151;47.824;12.092;2022-12-18T05:18:35;97473.94;;;-3.73;79.07
16094;BME280;8151;47.824;12.092;2022-12-18T05:21:04;97465.94;;;-3.67;78.85
16094;BME280;8151;47.824;12.092;2022-12-18T05:23:34;97470.06;;;-3.62;78.93
16094;BME280;8151;47.824;12.092;2022-12-18T05:26:05;97474.00;;;-3.51;78.75
16094;BME280;8151;47.824;12.092;2022-12-18T05:28:35;97474.00;;;-3.51;78.68
16094;BME280;8151;47.824;12.092;2022-12-18T05:31:04;97479.03;;;-3.47;78.86
16094;BME280;8151;47.824;12.092;2022-12-18T05:33:35;97486.44;;;-3.38;78.79
16094;BME280;8151;47.824;12.092;2022-12-18T05:36:05;97500.03;;;-3.31;78.63
16094;BME280;8151;47.824;12.092;2022-12-18T05:38:38;97501.88;;;-3.34;78.75
16094;BME280;8151;47.824;12.092;2022-12-18T05:41:07;97498.25;;;-3.29;78.63
16094;BME280;8151;47.824;12.092;2022-12-18T05:43:38;97495.69;;;-3.30;78.74
16094;BME280;8151;47.824;12.092;2022-12-18T05:46:09;97494.03;;;-3.57;78.67
16094;BME280;8151;47.824;12.092;2022-12-18T05:48:39;97495.09;;;-3.62;79.25
16094;BME280;8151;47.824;12.092;2022-12-18T05:51:08;97494.03;;;-3.57;79.26
16094;BME280;8151;47.824;12.092;2022-12-18T05:53:38;97506.81;;;-3.52;79.20
16094;BME280;8151;47.824;12.092;2022-12-18T05:56:09;97506.59;;;-3.46;79.34
16094;BME280;8151;47.824;12.092;2022-12-18T05:58:38;97510.63;;;-3.37;79.05
16094;BME280;8151;47.824;12.092;2022-12-18T06:01:09;97502.63;;;-3.31;78.81
16094;BME280;8151;47.824;12.092;2022-12-18T06:03:38;97499.19;;;-3.31;78.83
16094;BME280;8151;47.824;12.092;2022-12-18T06:06:13;97493.28;;;-3.35;78.79
16094;BME280;8151;47.824;12.092;2022-12-18T06:08:43;97489.69;;;-3.31;78.51
16094;BME280;8151;47.824;12.092;2022-12-18T06:11:15;97501.22;;;-3.16;78.92
16094;BME280;8151;47.824;12.092;2022-12-18T06:13:44;97508.66;;;-3.07;78.52
16094;BME280;8151;47.824;12.092;2022-12-18T06:16:12;97518.94;;;-3.05;78.43
16094;BME280;8151;47.824;12.092;2022-12-18T06:18:41;97516.38;;;-3.05;78.70
16094;BME280;8151;47.824;12.092;2022-12-18T06:21:10;97519.63;;;-3.00;78.71
16094;BME280;8151;47.824;12.092;2022-12-18T06:23:38;97512.63;;;-2.97;78.48
16094;BME280;8151;47.824;12.092;2022-12-18T06:26:10;97522.78;;;-2.92;78.59
16094;BME280;8151;47.824;12.092;2022-12-18T06:28:39;97514.19;;;-2.92;78.52
16094;BME280;8151;47.824;12.092;2022-12-18T06:31:08;97517.50;;;-2.89;78.49
16094;BME280;8151;47.824;12.092;2022-12-18T06:33:40;97513.81;;;-2.83;78.14
16094;BME280;8151;47.824;12.092;2022-12-18T06:36:11;97517.28;;;-2.83;78.35
16094;BME280;8151;47.824;12.092;2022-12-18T06:38:41;97524.97;;;-2.81;78.13
16094;BME280;8151;47.824;12.092;2022-12-18T06:41:13;97516.41;;;-2.83;78.57
16094;BME280;8151;47.824;12.092;2022-12-18T06:43:42;97515.63;;;-2.85;78.26
16094;BME280;8151;47.824;12.092;2022-12-18T06:46:11;97526.75;;;-2.83;78.22
16094;BME280;8151;47.824;12.092;2022-12-18T06:48:40;97531.09;;;-2.84;78.45
16094;BME280;8151;47.824;12.092;2022-12-18T06:51:08;97527.69;;;-2.84;78.44
16094;BME280;8151;47.824;12.092;2022-12-18T06:53:36;97523.28;;;-2.82;78.62
16094;BME280;8151;47.824;12.092;2022-12-18T06:56:07;97529.31;;;-2.82;78.38
16094;BME280;8151;47.824;12.092;2022-12-18T06:58:38;97528.47;;;-2.82;78.44
16094;BME280;8151;47.824;12.092;2022-12-18T07:01:10;97522.44;;;-2.83;78.60
16094;BME280;8151;47.824;12.092;2022-12-18T07:03:39;97520.00;;;-2.87;78.71
16094;BME280;8151;47.824;12.092;2022-12-18T07:06:13;97530.50;;;-2.90;78.73
16094;BME280;8151;47.824;12.092;2022-12-18T07:08:43;97535.63;;;-2.89;78.69
16094;BME280;8151;47.824;12.092;2022-12-18T07:11:12;97544.25;;;-2.88;78.64
16094;BME280;8151;47.824;12.092;2022-12-18T07:13:42;97543.31;;;-2.87;78.75
16094;BME280;8151;47.824;12.092;2022-12-18T07:16:12;97546.78;;;-2.87;78.76
16094;BME280;8151;47.824;12.092;2022-12-18T07:18:50;97547.63;;;-2.86;78.68
16094;BME280;8151;47.824;12.092;2022-12-18T07:21:19;97553.59;;;-2.84;78.86
16094;BME280;8151;47.824;12.092;2022-12-18T07:23:48;97553.44;;;-2.81;78.74
16094;BME280;8151;47.824;12.092;2022-12-18T07:26:18;97556.88;;;-2.79;78.91
16094;BME280;8151;47.824;12.092;2022-12-18T07:28:48;97558.59;;;-2.80;78.65
16094;BME280;8151;47.824;12.092;2022-12-18T07:31:20;97566.47;;;-2.83;78.83
16094;BME280;8151;47.824;12.092;2022-12-18T07:33:49;97570.66;;;-2.79;78.94
16094;BME280;8151;47.824;12.092;2022-12-18T07:36:18;97573.00;;;-2.72;78.83
16094;BME280;8151;47.824;12.092;2022-12-18T07:38:49;97580.81;;;-2.74;78.84
16094;BME280;8151;47.824;12.092;2022-12-18T07:41:19;97586.00;;;-2.74;78.67
16094;BME280;8151;47.824;12.092;2022-12-18T07:43:49;97581.75;;;-2.75;78.74
16094;BME280;8151;47.824;12.092;2022-12-18T07:46:18;97580.81;;;-2.74;78.92
16094;BME280;8151;47.824;12.092;2022-12-18T07:48:46;97578.13;;;-2.71;78.88
16094;BME280;8151;47.824;12.092;2022-12-18T07:51:17;97582.41;;;-2.70;78.76
16094;BME280;8151;47.824;12.092;2022-12-18T07:53:46;97585.78;;;-2.68;78.71
16094;BME280;8151;47.824;12.092;2022-12-18T07:56:18;97592.53;;;-2.64;78.89
16094;BME280;8151;47.824;12.092;2022-12-18T07:58:58;97598.41;;;-2.59;78.68
16094;BME280;8151;47.824;12.092;2022-12-18T08:01:34;97598.34;;;-2.57;78.68
16094;BME280;8151;47.824;12.092;2022-12-18T08:04:03;97591.41;;;-2.57;78.71
16094;BME280;8151;47.824;12.092;2022-12-18T08:06:32;97590.53;;;-2.55;78.72
16094;BME280;8151;47.824;12.092;2022-12-18T08:09:00;97590.53;;;-2.55;78.79
16094;BME280;8151;47.824;12.092;2022-12-18T08:11:29;97595.81;;;-2.59;78.53
16094;BME280;8151;47.824;12.092;2022-12-18T08:13:58;97599.25;;;-2.58;78.76
16094;BME280;8151;47.824;12.092;2022-12-18T08:16:27;97591.31;;;-2.53;78.78
16094;BME280;8151;47.824;12.092;2022-12-18T08:18:55;97596.38;;;-2.50;78.79
16094;BME280;8151;47.824;12.092;2022-12-18T08:21:26;97586.78;;;-2.48;78.65
16094;BME280;8151;47.824;12.092;2022-12-18T08:23:56;97584.94;;;-2.45;78.54
16094;BME280;8151;47.824;12.092;2022-12-18T08:26:26;97584.88;;;-2.43;78.48
16094;BME280;8151;47.824;12.092;2022-12-18T08:28:56;97591.75;;;-2.42;78.54
16094;BME280;8151;47.824;12.092;2022-12-18T08:31:27;97594.47;;;-2.45;78.56
16094;BME280;8151;47.824;12.092;2022-12-18T08:33:56;97595.25;;;-2.43;78.61
16094;BME280;8151;47.824;12.092;2022-12-18T08:36:25;97595.91;;;-2.38;78.83
16094;BME280;8151;47.824;12.092;2022-12-18T08:38:54;97590.44;;;-2.30;78.57
16094;BME280;8151;47.824;12.092;2022-12-18T08:41:22;97591.03;;;-2.24;78.37
16094;BME280;8151;47.824;12.092;2022-12-18T08:43:51;97590.94;;;-2.21;78.59
16094;BME280;8151;47.824;12.092;2022-12-18T08:46:39;97592.56;;;-2.18;78.54
16094;BME280;8151;47.824;12.092;2022-12-18T08:49:10;97589.91;;;-2.16;78.83
16094;BME280;8151;47.824;12.092;2022-12-18T08:51:39;97597.50;;;-2.12;78.67
16094;BME280;8151;47.824;12.092;2022-12-18T08:54:13;97599.84;;;-2.06;78.62
16094;BME280;8151;47.824;12.092;2022-12-18T08:56:41;97603.16;;;-2.02;78.53
16094;BME280;8151;47.824;12.092;2022-12-18T08:59:10;97604.94;;;-2.03;78.76
16094;BME280;8151;47.824;12.092;2022-12-18T09:01:47;97613.44;;;-1.99;78.69
16094;BME280;8151;47.824;12.092;2022-12-18T09:04:16;97616.56;;;-1.91;78.55
16094;BME280;8151;47.824;12.092;2022-12-18T09:06:44;97616.31;;;-1.85;78.59
16094;BME280;8151;47.824;12.092;2022-12-18T09:09:12;97611.88;;;-1.81;78.77
16094;BME280;8151;47.824;12.092;2022-12-18T09:11:41;97618.56;;;-1.75;78.50
16094;BME280;8151;47.824;12.092;2022-12-18T09:14:10;97619.28;;;-1.72;78.84
16094;BME280;8151;47.824;12.092;2022-12-18T09:16:38;97620.84;;;-1.68;78.71
16094;BME280;8151;47.824;12.092;2022-12-18T09:19:08;97622.47;;;-1.65;78.82
16094;BME280;8151;47.824;12.092;2022-12-18T09:21:37;97612.88;;;-1.63;78.98
16094;BME280;8151;47.824;12.092;2022-12-18T09:24:12;97615.56;;;-1.65;78.98
16094;BME280;8151;47.824;12.092;2022-12-18T09:26:41;97609.38;;;-1.62;79.09
16094;BME280;8151;47.824;12.092;2022-12-18T09:29:13;97617.84;;;-1.57;79.08
16094;BME280;8151;47.824;12.092;2022-12-18T09:31:45;97618.63;;;-1.55;79.06
16094;BME280;8151;47.824;12.092;2022-12-18T09:34:15;97623.66;;;-1.52;78.93
16094;BME280;8151;47.824;12.092;2022-12-18T09:36:43;97614.84;;;-1.48;78.92
16094;BME280;8151;47.824;12.092;2022-12-18T09:39:13;97606.16;;;-1.47;78.97
16094;BME280;8151;47.824;12.092;2022-12-18T09:41:45;97596.66;;;-1.48;79.00
16094;BME280;8151;47.824;12.092;2022-12-18T09:44:21;97606.09;;;-1.45;78.84
16094;BME280;8151;47.824;12.092;2022-12-18T09:46:57;97603.69;;;-1.50;78.76
16094;BME280;8151;47.824;12.092;2022-12-18T09:49:31;97595.06;;;-1.50;79.08
16094;BME280;8151;47.824;12.092;2022-12-18T09:52:05;97600.97;;;-1.47;78.79
16094;BME280;8151;47.824;12.092;2022-12-18T09:54:39;97603.63;;;-1.48;79.01
16094;BME280;8151;47.824;12.092;2022-12-18T09:57:13;97598.31;;;-1.45;78.88
16094;BME280;8151;47.824;12.092;2022-12-18T09:59:47;97598.22;;;-1.44;79.13
16094;BME280;8151;47.824;12.092;2022-12-18T10:02:20;97593.69;;;-1.39;79.15
16094;BME280;8151;47.824;12.092;2022-12-18T10:05:00;97589.94;;;-1.31;78.84
16094;BME280;8151;47.824;12.092;2022-12-18T10:07:38;97593.16;;;-1.26;78.57
16094;BME280;8151;47.824;12.092;2022-12-18T10:10:21;97599.16;;;-1.24;78.69
16094;BME280;8151;47.824;12.092;2022-12-18T10:12:56;97594.75;;;-1.22;78.80
16094;BME280;8151;47.824;12.092;2022-12-18T10:15:36;97598.91;;;-1.18;78.67
16094;BME280;8151;47.824;12.092;2022-12-18T10:18:15;97595.06;;;-1.09;78.76
16094;BME280;8151;47.824;12.092;2022-12-18T10:20:52;97593.97;;;-1.04;78.80
16094;BME280;8151;47.824;12.092;2022-12-18T10:23:28;97587.44;;;-0.93;78.73
16094;BME280;8151;47.824;12.092;2022-12-18T10:26:02;97582.84;;;-0.87;79.04
16094;BME280;8151;47.824;12.092;2022-12-18T10:28:33;97572.22;;;-0.82;79.24
16094;BME280;8151;47.824;12.092;2022-12-18T10:31:05;97575.41;;;-0.75;79.19
16094;BME280;8151;47.824;12.092;2022-12-18T10:33:34;97557.78;;;-0.69;79.16
16094;BME280;8151;47.824;12.092;2022-12-18T10:36:04;97559.25;;;-0.63;79.26
16094;BME280;8151;47.824;12.092;2022-12-18T10:38:33;97563.47;;;-0.61;79.26
16094;BME280;8151;47.824;12.092;2022-12-18T10:41:03;97572.81;;;-0.56;79.58
16094;BME280;8151;47.824;12.092;2022-12-18T10:43:35;97567.69;;;-0.58;79.36
16094;BME280;8151;47.824;12.092;2022-12-18T10:46:12;97567.94;;;-0.64;79.52
16094;BME280;8151;47.824;12.092;2022-12-18T10:48:50;97563.91;;;-0.70;79.79
16094;BME280;8151;47.824;12.092;2022-12-18T10:51:23;97556.09;;;-0.70;79.96
16094;BME280;8151;47.824;12.092;2022-12-18T10:53:56;97553.63;;;-0.73;79.74
16094;BME280;8151;47.824;12.092;2022-12-18T10:56:26;97556.50;;;-0.79;79.91
16094;BME280;8151;47.824;12.092;2022-12-18T10:59:00;97547.22;;;-0.85;79.88
16094;BME280;8151;47.824;12.092;2022-12-18T11:01:45;97550.72;;;-0.86;80.07
16094;BME280;8151;47.824;12.092;2022-12-18T11:04:18;97549.69;;;-0.82;79.84
16094;BME280;8151;47.824;12.092;2022-12-18T11:06:58;97542.66;;;-0.80;79.67
16094;BME280;8151;47.824;12.092;2022-12-18T11:09:28;97545.34;;;-0.81;79.26
16094;BME280;8151;47.824;12.092;2022-12-18T11:12:00;97540.97;;;-0.81;79.52
16094;BME280;8151;47.824;12.092;2022-12-18T11:14:31;97545.25;;;-0.80;79.43
16094;BME280;8151;47.824;12.092;2022-12-18T11:17:00;97541.03;;;-0.82;79.03
16094;BME280;8151;47.824;12.092;2022-12-18T11:19:53;97539.44;;;-0.85;79.38
16094;BME280;8151;47.824;12.092;2022-12-18T11:22:26;97541.09;;;-0.84;79.22
16094;BME280;8151;47.824;12.092;2022-12-18T11:24:57;97538.59;;;-0.85;79.08
16094;BME280;8151;47.824;12.092;2022-12-18T11:27:52;97536.13;;;-0.88;79.11
16094;BME280;8151;47.824;12.092;2022-12-18T11:30:23;97537.03;;;-0.89;79.30
16094;BME280;8151;47.824;12.092;2022-12-18T11:32:55;97537.91;;;-0.89;79.28
16094;BME280;8151;47.824;12.092;2022-12-18T11:35:34;97545.63;;;-0.87;78.92
16094;BME280;8151;47.824;12.092;2022-12-18T11:38:15;97547.69;;;-0.95;78.93
16094;BME280;8151;47.824;12.092;2022-12-18T11:40:50;97543.56;;;-1.00;79.11
16094;BME280;8151;47.824;12.092;2022-12-18T11:43:25;97546.09;;;-0.98;79.22
16094;BME280;8151;47.824;12.092;2022-12-18T11:45:59;97548.75;;;-1.00;79.14
16094;BME280;8151;47.824;12.092;2022-12-18T11:48:33;97543.50;;;-0.98;78.93
16094;BME280;8151;47.824;12.092;2022-12-18T11:51:05;97556.47;;;-0.98;79.04
16094;BME280;8151;47.824;12.092;2022-12-18T11:53:38;97554.66;;;-0.96;78.97
16094;BME280;8151;47.824;12.092;2022-12-18T11:56:29;97549.53;;;-0.97;78.78
16094;BME280;8151;47.824;12.092;2022-12-18T11:59:08;97546.03;;;-0.96;78.70
16094;BME280;8151;47.824;12.092;2022-12-18T12:01:48;97546.03;;;-0.96;78.75
16094;BME280;8151;47.824;12.092;2022-12-18T12:04:48;97539.91;;;-0.95;78.64
16094;BME280;8151;47.824;12.092;2022-12-18T12:07:30;97545.09;;;-0.95;78.89
16094;BME280;8151;47.824;12.092;2022-12-18T12:10:14;97555.66;;;-0.98;78.99
16094;BME280;8151;47.824;12.092;2022-12-18T12:12:59;97545.31;;;-1.00;79.00
16094;BME280;8151;47.824;12.092;2022-12-18T12:15:39;97550.34;;;-0.97;78.65
16094;BME280;8151;47.824;12.092;2022-12-18T12:18:20;97546.81;;;-0.94;78.74
16094;BME280;8151;47.824;12.092;2022-12-18T12:20:58;97548.75;;;-1.00;78.75
16094;BME280;8151;47.824;12.092;2022-12-18T12:23:38;97541.00;;;-1.01;79.00
16094;BME280;8151;47.824;12.092;2022-12-18T12:26:14;97541.88;;;-1.01;78.84
16094;BME280;8151;47.824;12.092;2022-12-18T12:28:57;97549.66;;;-1.01;78.58
16094;BME280;8151;47.824;12.092;2022-12-18T12:31:41;97538.41;;;-1.01;78.87
16094;BME280;8151;47.824;12.092;2022-12-18T12:34:17;97537.38;;;-0.97;78.63
16094;BME280;8151;47.824;12.092;2022-12-18T12:36:56;97533.09;;;-0.98;78.55
16094;BME280;8151;47.824;12.092;2022-12-18T12:39:32;97531.41;;;-0.99;78.45
16094;BME280;8151;47.824;12.092;2022-12-18T12:42:04;97527.19;;;-1.02;78.63
16094;BME280;8151;47.824;12.092;2022-12-18T12:44:54;97531.50;;;-1.01;78.64
16094;BME280;8151;47.824;12.092;2022-12-18T12:47:27;97532.31;;;-1.00;78.72
16094;BME280;8151;47.824;12.092;2022-12-18T12:49:59;97522.28;;;-1.08;78.61
16094;BME280;8151;47.824;12.092;2022-12-18T12:52:33;97518.19;;;-1.13;78.78
16094;BME280;8151;47.824;12.092;2022-12-18T12:55:05;97513.06;;;-1.15;78.92
16094;BME280;8151;47.824;12.092;2022-12-18T12:57:46;97512.34;;;-1.19;78.73
16094;BME280;8151;47.824;12.092;2022-12-18T13:00:19;97511.28;;;-1.14;78.83
16094;BME280;8151;47.824;12.092;2022-12-18T13:02:52;97501.06;;;-1.17;78.51
16094;BME280;8151;47.824;12.092;2022-12-18T13:05:28;97501.97;;;-1.19;78.75
16094;BME280;8151;47.824;12.092;2022-12-18T13:08:03;97507.16;;;-1.19;78.64
16094;BME280;8151;47.824;12.092;2022-12-18T13:10:39;97510.66;;;-1.20;78.61
16094;BME280;8151;47.824;12.092;2022-12-18T13:13:11;97513.72;;;-1.30;78.69
16094;BME280;8151;47.824;12.092;2022-12-18T13:15:42;97516.47;;;-1.33;79.17
16094;BME280;8151;47.824;12.092;2022-12-18T13:18:20;97519.78;;;-1.30;78.77
16094;BME280;8151;47.824;12.092;2022-12-18T13:21:02;97514.38;;;-1.25;78.87
16094;BME280;8151;47.824;12.092;2022-12-18T13:23:34;97516.84;;;-1.22;78.79
16094;BME280;8151;47.824;12.092;2022-12-18T13:26:30;97516.19;;;-1.27;78.46